sensor_id;sensor_type;location;lat;lon;timestamp;P1;durP1;ratioP1;P2;durP2;ratioP2
64395;SDS011;50717;53.360;6.290;2022-07-29T00:00:36;5.13;;;1.50;;
64395;SDS011;50717;53.360;6.290;2022-07-29T00:05:27;2.28;;;1.30;;
64395;SDS011;50717;53.360;6.290;2022-07-29T00:07:53;2.45;;;1.70;;
64395;SDS011;50717;53.360;6.290;2022-07-29T00:12:44;5.93;;;1.40;;
64395;SDS011;50717;53.360;6.290;2022-07-29T00:17:35;6.38;;;1.40;;
64395;SDS011;50717;53.360;6.290;2022-07-29T00:22:27;4.57;;;1.63;;
64395;SDS011;50717;53.360;6.290;2022-07-29T00:24:53;6.22;;;1.70;;
64395;SDS011;50717;53.360;6.290;2022-07-29T00:29:44;3.15;;;1.48;;
64395;SDS011;50717;53.360;6.290;2022-07-29T00:34:36;5.35;;;2.15;;
64395;SDS011;50717;53.360;6.290;2022-07-29T00:37:20;4.63;;;2.13;;
64395;SDS011;50717;53.360;6.290;2022-07-29T00:39:46;4.13;;;1.80;;
64395;SDS011;50717;53.360;6.290;2022-07-29T00:42:12;6.43;;;2.28;;
64395;SDS011;50717;53.360;6.290;2022-07-29T00:44:41;3.35;;;1.80;;
64395;SDS011;50717;53.360;6.290;2022-07-29T00:47:08;4.28;;;2.25;;
64395;SDS011;50717;53.360;6.290;2022-07-29T00:49:34;3.85;;;1.77;;
64395;SDS011;50717;53.360;6.290;2022-07-29T00:52:02;5.30;;;1.70;;
64395;SDS011;50717;53.360;6.290;2022-07-29T00:54:29;3.97;;;1.77;;
64395;SDS011;50717;53.360;6.290;2022-07-29T00:56:56;3.35;;;1.70;;
64395;SDS011;50717;53.360;6.290;2022-07-29T00:59:23;3.40;;;1.63;;
64395;SDS011;50717;53.360;6.290;2022-07-29T01:01:52;3.03;;;1.60;;
64395;SDS011;50717;53.360;6.290;2022-07-29T01:04:18;6.82;;;2.00;;
64395;SDS011;50717;53.360;6.290;2022-07-29T01:06:44;4.57;;;2.38;;
64395;SDS011;50717;53.360;6.290;2022-07-29T01:09:11;5.28;;;1.80;;
64395;SDS011;50717;53.360;6.290;2022-07-29T01:11:38;3.80;;;1.90;;
64395;SDS011;50717;53.360;6.290;2022-07-29T01:14:05;5.30;;;1.83;;
64395;SDS011;50717;53.360;6.290;2022-07-29T01:16:32;6.93;;;2.00;;
64395;SDS011;50717;53.360;6.290;2022-07-29T01:19:11;4.25;;;2.28;;
64395;SDS011;50717;53.360;6.290;2022-07-29T01:27:15;2.67;;;1.60;;
64395;SDS011;50717;53.360;6.290;2022-07-29T01:29:57;6.18;;;2.10;;
64395;SDS011;50717;53.360;6.290;2022-07-29T01:32:29;3.40;;;1.83;;
64395;SDS011;50717;53.360;6.290;2022-07-29T01:35:17;4.70;;;1.80;;
64395;SDS011;50717;53.360;6.290;2022-07-29T01:38:20;7.15;;;1.80;;
64395;SDS011;50717;53.360;6.290;2022-07-29T01:40:41;4.80;;;1.90;;
64395;SDS011;50717;53.360;6.290;2022-07-29T01:43:16;5.15;;;1.85;;
64395;SDS011;50717;53.360;6.290;2022-07-29T01:51:07;3.13;;;1.95;;
64395;SDS011;50717;53.360;6.290;2022-07-29T01:53:50;3.60;;;2.15;;
64395;SDS011;50717;53.360;6.290;2022-07-29T01:56:24;3.00;;;1.65;;
64395;SDS011;50717;53.360;6.290;2022-07-29T01:58:54;3.60;;;1.83;;
64395;SDS011;50717;53.360;6.290;2022-07-29T02:01:22;5.85;;;2.10;;
64395;SDS011;50717;53.360;6.290;2022-07-29T02:03:50;4.70;;;1.80;;
64395;SDS011;50717;53.360;6.290;2022-07-29T02:06:19;3.75;;;1.63;;
64395;SDS011;50717;53.360;6.290;2022-07-29T02:08:46;6.20;;;1.95;;
64395;SDS011;50717;53.360;6.290;2022-07-29T02:11:15;5.68;;;1.92;;
64395;SDS011;50717;53.360;6.290;2022-07-29T02:13:41;6.07;;;1.88;;
64395;SDS011;50717;53.360;6.290;2022-07-29T02:16:08;3.67;;;1.88;;
64395;SDS011;50717;53.360;6.290;2022-07-29T02:18:39;5.35;;;1.77;;
64395;SDS011;50717;53.360;6.290;2022-07-29T02:21:07;6.60;;;1.85;;
64395;SDS011;50717;53.360;6.290;2022-07-29T02:23:34;3.70;;;1.77;;
64395;SDS011;50717;53.360;6.290;2022-07-29T02:26:02;3.67;;;1.90;;
64395;SDS011;50717;53.360;6.290;2022-07-29T02:30:57;5.82;;;2.08;;
64395;SDS011;50717;53.360;6.290;2022-07-29T02:33:25;3.03;;;1.73;;
64395;SDS011;50717;53.360;6.290;2022-07-29T02:35:51;2.53;;;1.70;;
64395;SDS011;50717;53.360;6.290;2022-07-29T02:41:04;4.95;;;2.03;;
64395;SDS011;50717;53.360;6.290;2022-07-29T02:43:36;4.63;;;1.70;;
64395;SDS011;50717;53.360;6.290;2022-07-29T02:46:08;5.97;;;1.98;;
64395;SDS011;50717;53.360;6.290;2022-07-29T02:48:44;5.80;;;2.30;;
64395;SDS011;50717;53.360;6.290;2022-07-29T02:51:22;3.40;;;2.13;;
64395;SDS011;50717;53.360;6.290;2022-07-29T02:54:10;4.80;;;2.00;;
64395;SDS011;50717;53.360;6.290;2022-07-29T02:56:40;4.88;;;2.00;;
64395;SDS011;50717;53.360;6.290;2022-07-29T02:59:10;2.88;;;1.80;;
64395;SDS011;50717;53.360;6.290;2022-07-29T03:01:39;4.70;;;1.92;;
64395;SDS011;50717;53.360;6.290;2022-07-29T03:04:08;4.18;;;1.90;;
64395;SDS011;50717;53.360;6.290;2022-07-29T03:06:35;2.60;;;1.77;;
64395;SDS011;50717;53.360;6.290;2022-07-29T03:09:03;2.92;;;1.85;;
64395;SDS011;50717;53.360;6.290;2022-07-29T03:11:31;3.42;;;1.85;;
64395;SDS011;50717;53.360;6.290;2022-07-29T03:13:59;7.35;;;2.00;;
64395;SDS011;50717;53.360;6.290;2022-07-29T03:16:25;5.72;;;1.80;;
64395;SDS011;50717;53.360;6.290;2022-07-29T03:18:51;6.03;;;2.20;;
64395;SDS011;50717;53.360;6.290;2022-07-29T03:21:18;5.63;;;1.77;;
64395;SDS011;50717;53.360;6.290;2022-07-29T03:23:44;3.88;;;1.60;;
64395;SDS011;50717;53.360;6.290;2022-07-29T03:26:10;6.57;;;1.90;;
64395;SDS011;50717;53.360;6.290;2022-07-29T03:28:36;8.32;;;2.20;;
64395;SDS011;50717;53.360;6.290;2022-07-29T03:31:02;4.43;;;1.80;;
64395;SDS011;50717;53.360;6.290;2022-07-29T03:33:28;6.13;;;1.92;;
64395;SDS011;50717;53.360;6.290;2022-07-29T03:35:55;6.45;;;2.38;;
64395;SDS011;50717;53.360;6.290;2022-07-29T03:40:49;7.28;;;2.03;;
64395;SDS011;50717;53.360;6.290;2022-07-29T03:43:19;5.00;;;2.03;;
64395;SDS011;50717;53.360;6.290;2022-07-29T03:45:47;5.25;;;2.10;;
64395;SDS011;50717;53.360;6.290;2022-07-29T03:48:16;4.35;;;1.92;;
64395;SDS011;50717;53.360;6.290;2022-07-29T03:50:45;4.90;;;1.90;;
64395;SDS011;50717;53.360;6.290;2022-07-29T03:53:11;5.00;;;1.95;;
64395;SDS011;50717;53.360;6.290;2022-07-29T03:55:41;7.05;;;2.22;;
64395;SDS011;50717;53.360;6.290;2022-07-29T03:58:11;4.38;;;1.90;;
64395;SDS011;50717;53.360;6.290;2022-07-29T04:00:38;4.70;;;2.30;;
64395;SDS011;50717;53.360;6.290;2022-07-29T04:03:05;6.47;;;2.50;;
64395;SDS011;50717;53.360;6.290;2022-07-29T04:05:31;4.80;;;2.00;;
64395;SDS011;50717;53.360;6.290;2022-07-29T04:07:56;6.47;;;2.10;;
64395;SDS011;50717;53.360;6.290;2022-07-29T04:12:48;6.03;;;2.42;;
64395;SDS011;50717;53.360;6.290;2022-07-29T04:15:14;5.57;;;2.08;;
64395;SDS011;50717;53.360;6.290;2022-07-29T04:17:40;8.43;;;2.33;;
64395;SDS011;50717;53.360;6.290;2022-07-29T04:20:06;4.85;;;1.88;;
64395;SDS011;50717;53.360;6.290;2022-07-29T04:24:57;5.28;;;2.05;;
64395;SDS011;50717;53.360;6.290;2022-07-29T04:27:23;8.70;;;2.03;;
64395;SDS011;50717;53.360;6.290;2022-07-29T04:32:14;4.70;;;2.15;;
64395;SDS011;50717;53.360;6.290;2022-07-29T04:34:40;5.65;;;2.30;;
64395;SDS011;50717;53.360;6.290;2022-07-29T04:39:31;4.97;;;2.13;;
64395;SDS011;50717;53.360;6.290;2022-07-29T04:41:57;6.57;;;2.10;;
64395;SDS011;50717;53.360;6.290;2022-07-29T04:44:22;4.28;;;2.10;;
64395;SDS011;50717;53.360;6.290;2022-07-29T04:49:14;6.40;;;2.15;;
64395;SDS011;50717;53.360;6.290;2022-07-29T04:51:39;8.52;;;2.40;;
64395;SDS011;50717;53.360;6.290;2022-07-29T04:56:31;9.75;;;2.45;;
64395;SDS011;50717;53.360;6.290;2022-07-29T05:01:22;5.03;;;2.20;;
64395;SDS011;50717;53.360;6.290;2022-07-29T05:06:13;4.57;;;2.30;;
64395;SDS011;50717;53.360;6.290;2022-07-29T05:11:05;7.35;;;1.90;;
64395;SDS011;50717;53.360;6.290;2022-07-29T05:13:31;4.53;;;2.20;;
64395;SDS011;50717;53.360;6.290;2022-07-29T05:15:56;4.72;;;2.20;;
64395;SDS011;50717;53.360;6.290;2022-07-29T05:18:23;5.90;;;2.00;;
64395;SDS011;50717;53.360;6.290;2022-07-29T05:20:50;4.28;;;2.17;;
64395;SDS011;50717;53.360;6.290;2022-07-29T05:23:15;5.07;;;2.20;;
64395;SDS011;50717;53.360;6.290;2022-07-29T05:28:07;5.47;;;1.88;;
64395;SDS011;50717;53.360;6.290;2022-07-29T05:32:58;4.82;;;2.08;;
64395;SDS011;50717;53.360;6.290;2022-07-29T05:37:49;6.00;;;2.00;;
64395;SDS011;50717;53.360;6.290;2022-07-29T05:42:41;4.53;;;1.70;;
64395;SDS011;50717;53.360;6.290;2022-07-29T05:45:06;7.68;;;2.05;;
64395;SDS011;50717;53.360;6.290;2022-07-29T05:47:33;5.55;;;1.90;;
64395;SDS011;50717;53.360;6.290;2022-07-29T05:52:24;5.32;;;1.80;;
64395;SDS011;50717;53.360;6.290;2022-07-29T05:57:16;5.45;;;2.40;;
64395;SDS011;50717;53.360;6.290;2022-07-29T05:59:42;3.47;;;1.83;;
64395;SDS011;50717;53.360;6.290;2022-07-29T06:04:34;8.07;;;2.08;;
64395;SDS011;50717;53.360;6.290;2022-07-29T06:09:25;5.32;;;2.00;;
64395;SDS011;50717;53.360;6.290;2022-07-29T06:14:17;4.75;;;1.80;;
64395;SDS011;50717;53.360;6.290;2022-07-29T06:19:08;5.05;;;2.22;;
64395;SDS011;50717;53.360;6.290;2022-07-29T06:24:00;10.90;;;1.73;;
64395;SDS011;50717;53.360;6.290;2022-07-29T06:28:51;3.13;;;1.65;;
64395;SDS011;50717;53.360;6.290;2022-07-29T06:33:42;4.95;;;1.90;;
64395;SDS011;50717;53.360;6.290;2022-07-29T06:38:33;6.88;;;1.98;;
64395;SDS011;50717;53.360;6.290;2022-07-29T06:43:29;3.05;;;1.77;;
64395;SDS011;50717;53.360;6.290;2022-07-29T06:46:01;7.30;;;1.95;;
64395;SDS011;50717;53.360;6.290;2022-07-29T06:48:28;4.88;;;1.70;;
64395;SDS011;50717;53.360;6.290;2022-07-29T06:50:54;4.68;;;1.88;;
64395;SDS011;50717;53.360;6.290;2022-07-29T06:55:45;4.82;;;1.65;;
64395;SDS011;50717;53.360;6.290;2022-07-29T07:00:36;3.50;;;2.10;;
64395;SDS011;50717;53.360;6.290;2022-07-29T07:05:28;7.53;;;2.10;;
64395;SDS011;50717;53.360;6.290;2022-07-29T07:07:54;4.32;;;1.90;;
64395;SDS011;50717;53.360;6.290;2022-07-29T07:10:19;4.47;;;1.83;;
64395;SDS011;50717;53.360;6.290;2022-07-29T07:12:45;8.10;;;2.22;;
64395;SDS011;50717;53.360;6.290;2022-07-29T07:17:36;8.15;;;2.03;;
64395;SDS011;50717;53.360;6.290;2022-07-29T07:22:29;6.85;;;2.08;;
64395;SDS011;50717;53.360;6.290;2022-07-29T07:27:21;6.45;;;2.20;;
64395;SDS011;50717;53.360;6.290;2022-07-29T07:32:12;9.25;;;2.10;;
64395;SDS011;50717;53.360;6.290;2022-07-29T07:34:38;5.15;;;2.80;;
64395;SDS011;50717;53.360;6.290;2022-07-29T07:37:04;6.20;;;1.80;;
64395;SDS011;50717;53.360;6.290;2022-07-29T07:39:30;7.63;;;2.28;;
64395;SDS011;50717;53.360;6.290;2022-07-29T07:44:21;3.42;;;1.88;;
64395;SDS011;50717;53.360;6.290;2022-07-29T07:46:47;7.30;;;2.22;;
64395;SDS011;50717;53.360;6.290;2022-07-29T07:49:13;7.40;;;2.28;;
64395;SDS011;50717;53.360;6.290;2022-07-29T07:51:38;9.18;;;2.45;;
64395;SDS011;50717;53.360;6.290;2022-07-29T07:56:29;4.35;;;2.03;;
64395;SDS011;50717;53.360;6.290;2022-07-29T07:58:55;7.53;;;2.00;;
64395;SDS011;50717;53.360;6.290;2022-07-29T08:01:21;6.47;;;2.42;;
64395;SDS011;50717;53.360;6.290;2022-07-29T08:03:48;7.75;;;2.00;;
64395;SDS011;50717;53.360;6.290;2022-07-29T08:06:15;9.45;;;3.55;;
64395;SDS011;50717;53.360;6.290;2022-07-29T08:08:40;6.15;;;2.25;;
64395;SDS011;50717;53.360;6.290;2022-07-29T08:11:06;6.78;;;1.92;;
64395;SDS011;50717;53.360;6.290;2022-07-29T08:13:32;4.88;;;1.90;;
64395;SDS011;50717;53.360;6.290;2022-07-29T08:15:58;3.58;;;1.80;;
64395;SDS011;50717;53.360;6.290;2022-07-29T08:18:36;4.68;;;2.13;;
64395;SDS011;50717;53.360;6.290;2022-07-29T08:21:03;5.35;;;2.08;;
64395;SDS011;50717;53.360;6.290;2022-07-29T08:23:29;4.32;;;1.95;;
64395;SDS011;50717;53.360;6.290;2022-07-29T08:26:03;5.30;;;2.63;;
64395;SDS011;50717;53.360;6.290;2022-07-29T08:28:39;3.72;;;2.00;;
64395;SDS011;50717;53.360;6.290;2022-07-29T08:31:06;6.60;;;2.00;;
64395;SDS011;50717;53.360;6.290;2022-07-29T08:33:32;8.50;;;2.47;;
64395;SDS011;50717;53.360;6.290;2022-07-29T08:35:58;11.18;;;2.22;;
64395;SDS011;50717;53.360;6.290;2022-07-29T08:38:24;5.63;;;2.47;;
64395;SDS011;50717;53.360;6.290;2022-07-29T08:40:51;7.47;;;2.10;;
64395;SDS011;50717;53.360;6.290;2022-07-29T08:43:17;7.47;;;2.33;;
64395;SDS011;50717;53.360;6.290;2022-07-29T08:45:48;6.07;;;1.90;;
64395;SDS011;50717;53.360;6.290;2022-07-29T08:48:16;4.57;;;2.22;;
64395;SDS011;50717;53.360;6.290;2022-07-29T08:50:44;5.15;;;2.22;;
64395;SDS011;50717;53.360;6.290;2022-07-29T08:53:12;6.97;;;2.72;;
64395;SDS011;50717;53.360;6.290;2022-07-29T08:55:48;6.65;;;2.38;;
64395;SDS011;50717;53.360;6.290;2022-07-29T08:58:15;8.23;;;2.20;;
64395;SDS011;50717;53.360;6.290;2022-07-29T09:00:42;4.85;;;2.03;;
64395;SDS011;50717;53.360;6.290;2022-07-29T09:03:17;11.40;;;2.20;;
64395;SDS011;50717;53.360;6.290;2022-07-29T09:05:45;5.20;;;2.38;;
64395;SDS011;50717;53.360;6.290;2022-07-29T09:08:11;6.78;;;2.10;;
64395;SDS011;50717;53.360;6.290;2022-07-29T09:10:38;9.45;;;2.20;;
64395;SDS011;50717;53.360;6.290;2022-07-29T09:13:04;7.10;;;2.30;;
64395;SDS011;50717;53.360;6.290;2022-07-29T09:15:30;6.35;;;2.38;;
64395;SDS011;50717;53.360;6.290;2022-07-29T09:17:56;6.18;;;2.40;;
64395;SDS011;50717;53.360;6.290;2022-07-29T09:20:23;6.47;;;2.13;;
64395;SDS011;50717;53.360;6.290;2022-07-29T09:22:51;5.30;;;2.63;;
64395;SDS011;50717;53.360;6.290;2022-07-29T09:25:37;8.10;;;2.22;;
64395;SDS011;50717;53.360;6.290;2022-07-29T09:33:36;6.43;;;2.28;;
64395;SDS011;50717;53.360;6.290;2022-07-29T09:36:04;6.53;;;2.42;;
64395;SDS011;50717;53.360;6.290;2022-07-29T09:38:31;5.32;;;2.38;;
64395;SDS011;50717;53.360;6.290;2022-07-29T09:40:57;5.90;;;2.08;;
64395;SDS011;50717;53.360;6.290;2022-07-29T09:43:26;7.57;;;2.40;;
64395;SDS011;50717;53.360;6.290;2022-07-29T09:45:52;6.82;;;2.17;;
64395;SDS011;50717;53.360;6.290;2022-07-29T09:48:21;3.05;;;2.13;;
64395;SDS011;50717;53.360;6.290;2022-07-29T09:50:49;5.90;;;2.15;;
64395;SDS011;50717;53.360;6.290;2022-07-29T09:53:37;5.57;;;2.30;;
64395;SDS011;50717;53.360;6.290;2022-07-29T09:56:02;5.15;;;2.40;;
64395;SDS011;50717;53.360;6.290;2022-07-29T09:58:29;7.55;;;2.13;;
64395;SDS011;50717;53.360;6.290;2022-07-29T10:00:55;5.95;;;2.47;;
64395;SDS011;50717;53.360;6.290;2022-07-29T10:03:22;3.55;;;2.10;;
64395;SDS011;50717;53.360;6.290;2022-07-29T10:06:07;8.57;;;2.72;;
64395;SDS011;50717;53.360;6.290;2022-07-29T10:11:08;9.53;;;2.83;;
64395;SDS011;50717;53.360;6.290;2022-07-29T10:13:42;8.68;;;2.53;;
64395;SDS011;50717;53.360;6.290;2022-07-29T10:16:09;7.07;;;2.60;;
64395;SDS011;50717;53.360;6.290;2022-07-29T10:18:35;9.27;;;3.08;;
64395;SDS011;50717;53.360;6.290;2022-07-29T10:21:03;8.55;;;3.00;;
64395;SDS011;50717;53.360;6.290;2022-07-29T10:23:29;8.15;;;2.85;;
64395;SDS011;50717;53.360;6.290;2022-07-29T10:25:55;9.25;;;3.30;;
64395;SDS011;50717;53.360;6.290;2022-07-29T10:28:21;5.93;;;2.40;;
64395;SDS011;50717;53.360;6.290;2022-07-29T10:30:48;8.48;;;2.47;;
64395;SDS011;50717;53.360;6.290;2022-07-29T10:38:51;7.25;;;3.20;;
64395;SDS011;50717;53.360;6.290;2022-07-29T10:41:33;6.95;;;3.08;;
64395;SDS011;50717;53.360;6.290;2022-07-29T10:46:43;8.77;;;3.08;;
64395;SDS011;50717;53.360;6.290;2022-07-29T10:49:16;7.50;;;3.22;;
64395;SDS011;50717;53.360;6.290;2022-07-29T10:54:17;6.45;;;3.22;;
64395;SDS011;50717;53.360;6.290;2022-07-29T10:56:43;8.07;;;3.30;;
64395;SDS011;50717;53.360;6.290;2022-07-29T11:01:48;9.65;;;3.33;;
64395;SDS011;50717;53.360;6.290;2022-07-29T11:04:15;6.85;;;2.80;;
64395;SDS011;50717;53.360;6.290;2022-07-29T11:09:27;5.50;;;2.90;;
64395;SDS011;50717;53.360;6.290;2022-07-29T11:11:55;6.38;;;2.95;;
64395;SDS011;50717;53.360;6.290;2022-07-29T11:20:32;10.90;;;3.55;;
64395;SDS011;50717;53.360;6.290;2022-07-29T11:23:03;8.68;;;3.20;;
64395;SDS011;50717;53.360;6.290;2022-07-29T11:31:39;8.43;;;3.37;;
64395;SDS011;50717;53.360;6.290;2022-07-29T11:34:27;8.15;;;2.92;;
64395;SDS011;50717;53.360;6.290;2022-07-29T11:39:37;11.10;;;3.35;;
64395;SDS011;50717;53.360;6.290;2022-07-29T11:45:05;8.40;;;3.13;;
64395;SDS011;50717;53.360;6.290;2022-07-29T11:47:40;9.82;;;3.17;;
64395;SDS011;50717;53.360;6.290;2022-07-29T11:50:13;7.93;;;3.10;;
64395;SDS011;50717;53.360;6.290;2022-07-29T11:52:43;8.93;;;2.78;;
64395;SDS011;50717;53.360;6.290;2022-07-29T11:55:18;6.95;;;2.70;;
64395;SDS011;50717;53.360;6.290;2022-07-29T11:57:56;4.82;;;2.60;;
64395;SDS011;50717;53.360;6.290;2022-07-29T12:00:30;11.35;;;3.65;;
64395;SDS011;50717;53.360;6.290;2022-07-29T12:03:02;6.57;;;3.00;;
64395;SDS011;50717;53.360;6.290;2022-07-29T12:05:33;6.35;;;2.60;;
64395;SDS011;50717;53.360;6.290;2022-07-29T12:08:11;5.30;;;2.38;;
64395;SDS011;50717;53.360;6.290;2022-07-29T12:10:39;7.95;;;2.45;;
64395;SDS011;50717;53.360;6.290;2022-07-29T12:13:05;6.63;;;2.88;;
64395;SDS011;50717;53.360;6.290;2022-07-29T12:15:31;6.82;;;2.97;;
64395;SDS011;50717;53.360;6.290;2022-07-29T12:17:57;6.43;;;3.05;;
64395;SDS011;50717;53.360;6.290;2022-07-29T12:20:24;10.20;;;3.08;;
64395;SDS011;50717;53.360;6.290;2022-07-29T12:22:54;6.30;;;2.90;;
64395;SDS011;50717;53.360;6.290;2022-07-29T12:25:21;7.70;;;2.60;;
64395;SDS011;50717;53.360;6.290;2022-07-29T12:27:58;5.03;;;2.80;;
64395;SDS011;50717;53.360;6.290;2022-07-29T12:33:10;6.30;;;2.33;;
64395;SDS011;50717;53.360;6.290;2022-07-29T12:35:59;5.90;;;2.10;;
64395;SDS011;50717;53.360;6.290;2022-07-29T12:38:26;7.22;;;2.50;;
64395;SDS011;50717;53.360;6.290;2022-07-29T12:40:53;11.25;;;2.67;;
64395;SDS011;50717;53.360;6.290;2022-07-29T12:43:20;5.32;;;3.00;;
64395;SDS011;50717;53.360;6.290;2022-07-29T12:45:51;8.75;;;2.60;;
64395;SDS011;50717;53.360;6.290;2022-07-29T12:48:34;5.18;;;2.40;;
64395;SDS011;50717;53.360;6.290;2022-07-29T12:51:02;6.68;;;3.08;;
64395;SDS011;50717;53.360;6.290;2022-07-29T12:53:29;8.48;;;2.95;;
64395;SDS011;50717;53.360;6.290;2022-07-29T12:55:56;8.10;;;3.35;;
64395;SDS011;50717;53.360;6.290;2022-07-29T13:03:28;5.83;;;3.20;;
64395;SDS011;50717;53.360;6.290;2022-07-29T13:05:54;5.47;;;3.67;;
64395;SDS011;50717;53.360;6.290;2022-07-29T13:08:19;7.10;;;3.53;;
64395;SDS011;50717;53.360;6.290;2022-07-29T13:10:45;9.30;;;3.08;;
64395;SDS011;50717;53.360;6.290;2022-07-29T13:13:14;7.63;;;2.72;;
64395;SDS011;50717;53.360;6.290;2022-07-29T13:15:44;7.43;;;2.78;;
64395;SDS011;50717;53.360;6.290;2022-07-29T13:20:54;9.63;;;2.70;;
64395;SDS011;50717;53.360;6.290;2022-07-29T13:23:20;7.85;;;2.67;;
64395;SDS011;50717;53.360;6.290;2022-07-29T13:25:46;8.32;;;2.70;;
64395;SDS011;50717;53.360;6.290;2022-07-29T13:28:12;7.47;;;2.60;;
64395;SDS011;50717;53.360;6.290;2022-07-29T13:30:39;7.85;;;2.50;;
64395;SDS011;50717;53.360;6.290;2022-07-29T13:33:05;6.80;;;2.60;;
64395;SDS011;50717;53.360;6.290;2022-07-29T13:35:31;4.95;;;2.40;;
64395;SDS011;50717;53.360;6.290;2022-07-29T13:37:57;6.65;;;2.50;;
64395;SDS011;50717;53.360;6.290;2022-07-29T13:40:23;5.57;;;2.60;;
64395;SDS011;50717;53.360;6.290;2022-07-29T13:42:49;6.60;;;2.95;;
64395;SDS011;50717;53.360;6.290;2022-07-29T13:45:15;4.43;;;2.40;;
64395;SDS011;50717;53.360;6.290;2022-07-29T13:47:41;7.50;;;2.50;;
64395;SDS011;50717;53.360;6.290;2022-07-29T13:50:07;8.52;;;2.47;;
64395;SDS011;50717;53.360;6.290;2022-07-29T13:52:35;8.57;;;2.70;;
64395;SDS011;50717;53.360;6.290;2022-07-29T13:55:03;6.43;;;2.83;;
64395;SDS011;50717;53.360;6.290;2022-07-29T13:57:29;7.25;;;2.50;;
64395;SDS011;50717;53.360;6.290;2022-07-29T13:59:55;5.80;;;2.40;;
64395;SDS011;50717;53.360;6.290;2022-07-29T14:02:21;10.57;;;2.80;;
64395;SDS011;50717;53.360;6.290;2022-07-29T14:04:47;11.38;;;3.63;;
64395;SDS011;50717;53.360;6.290;2022-07-29T14:07:12;11.88;;;3.53;;
64395;SDS011;50717;53.360;6.290;2022-07-29T14:09:38;6.32;;;2.70;;
64395;SDS011;50717;53.360;6.290;2022-07-29T14:12:04;8.10;;;2.88;;
64395;SDS011;50717;53.360;6.290;2022-07-29T14:14:30;6.95;;;2.88;;
64395;SDS011;50717;53.360;6.290;2022-07-29T14:16:57;7.57;;;2.75;;
64395;SDS011;50717;53.360;6.290;2022-07-29T14:19:23;7.95;;;2.40;;
64395;SDS011;50717;53.360;6.290;2022-07-29T14:21:48;9.20;;;2.60;;
64395;SDS011;50717;53.360;6.290;2022-07-29T14:24:14;7.03;;;2.38;;
64395;SDS011;50717;53.360;6.290;2022-07-29T14:26:40;8.20;;;2.42;;
64395;SDS011;50717;53.360;6.290;2022-07-29T14:29:05;4.78;;;1.85;;
64395;SDS011;50717;53.360;6.290;2022-07-29T14:31:32;9.45;;;2.10;;
64395;SDS011;50717;53.360;6.290;2022-07-29T14:33:57;4.22;;;1.85;;
64395;SDS011;50717;53.360;6.290;2022-07-29T14:36:23;4.28;;;1.63;;
64395;SDS011;50717;53.360;6.290;2022-07-29T14:38:49;8.43;;;1.90;;
64395;SDS011;50717;53.360;6.290;2022-07-29T14:41:15;6.22;;;2.00;;
64395;SDS011;50717;53.360;6.290;2022-07-29T14:43:40;6.70;;;1.83;;
64395;SDS011;50717;53.360;6.290;2022-07-29T14:46:06;10.25;;;2.55;;
64395;SDS011;50717;53.360;6.290;2022-07-29T14:48:32;5.68;;;2.30;;
64395;SDS011;50717;53.360;6.290;2022-07-29T14:50:58;11.77;;;1.85;;
64395;SDS011;50717;53.360;6.290;2022-07-29T14:53:24;5.15;;;2.10;;
64395;SDS011;50717;53.360;6.290;2022-07-29T14:55:50;7.95;;;2.30;;
64395;SDS011;50717;53.360;6.290;2022-07-29T14:58:15;4.05;;;2.05;;
64395;SDS011;50717;53.360;6.290;2022-07-29T15:00:41;4.97;;;2.05;;
64395;SDS011;50717;53.360;6.290;2022-07-29T15:03:07;6.32;;;2.33;;
64395;SDS011;50717;53.360;6.290;2022-07-29T15:05:35;4.72;;;1.95;;
64395;SDS011;50717;53.360;6.290;2022-07-29T15:08:01;5.55;;;2.10;;
64395;SDS011;50717;53.360;6.290;2022-07-29T15:10:27;5.32;;;2.20;;
64395;SDS011;50717;53.360;6.290;2022-07-29T15:12:53;5.78;;;2.22;;
64395;SDS011;50717;53.360;6.290;2022-07-29T15:15:19;6.88;;;2.20;;
64395;SDS011;50717;53.360;6.290;2022-07-29T15:17:45;3.90;;;2.05;;
64395;SDS011;50717;53.360;6.290;2022-07-29T15:20:12;3.08;;;2.00;;
64395;SDS011;50717;53.360;6.290;2022-07-29T15:22:38;6.68;;;2.30;;
64395;SDS011;50717;53.360;6.290;2022-07-29T15:25:04;6.60;;;1.80;;
64395;SDS011;50717;53.360;6.290;2022-07-29T15:27:30;4.10;;;1.88;;
64395;SDS011;50717;53.360;6.290;2022-07-29T15:29:56;7.63;;;2.35;;
64395;SDS011;50717;53.360;6.290;2022-07-29T15:32:22;5.70;;;1.80;;
64395;SDS011;50717;53.360;6.290;2022-07-29T15:34:48;6.93;;;2.15;;
64395;SDS011;50717;53.360;6.290;2022-07-29T15:37:14;8.10;;;2.40;;
64395;SDS011;50717;53.360;6.290;2022-07-29T15:39:39;3.97;;;2.00;;
64395;SDS011;50717;53.360;6.290;2022-07-29T15:42:05;11.32;;;2.70;;
64395;SDS011;50717;53.360;6.290;2022-07-29T15:44:31;6.82;;;2.10;;
64395;SDS011;50717;53.360;6.290;2022-07-29T15:46:57;6.43;;;2.50;;
64395;SDS011;50717;53.360;6.290;2022-07-29T15:49:33;3.70;;;1.70;;
64395;SDS011;50717;53.360;6.290;2022-07-29T15:52:06;7.00;;;2.40;;
64395;SDS011;50717;53.360;6.290;2022-07-29T15:54:34;6.13;;;2.00;;
64395;SDS011;50717;53.360;6.290;2022-07-29T15:57:04;4.88;;;2.10;;
64395;SDS011;50717;53.360;6.290;2022-07-29T15:59:30;7.43;;;1.85;;
64395;SDS011;50717;53.360;6.290;2022-07-29T16:01:56;7.63;;;1.88;;
64395;SDS011;50717;53.360;6.290;2022-07-29T16:04:22;7.18;;;2.30;;
64395;SDS011;50717;53.360;6.290;2022-07-29T16:06:48;3.47;;;1.90;;
64395;SDS011;50717;53.360;6.290;2022-07-29T16:09:15;4.07;;;2.30;;
64395;SDS011;50717;53.360;6.290;2022-07-29T16:11:41;8.32;;;2.95;;
64395;SDS011;50717;53.360;6.290;2022-07-29T16:14:07;5.53;;;2.15;;
64395;SDS011;50717;53.360;6.290;2022-07-29T16:16:35;6.72;;;2.00;;
64395;SDS011;50717;53.360;6.290;2022-07-29T16:19:01;3.60;;;1.90;;
64395;SDS011;50717;53.360;6.290;2022-07-29T16:21:28;4.43;;;2.00;;
64395;SDS011;50717;53.360;6.290;2022-07-29T16:23:55;5.18;;;2.00;;
64395;SDS011;50717;53.360;6.290;2022-07-29T16:26:22;6.10;;;2.05;;
64395;SDS011;50717;53.360;6.290;2022-07-29T16:28:48;5.75;;;2.00;;
64395;SDS011;50717;53.360;6.290;2022-07-29T16:31:13;3.22;;;2.25;;
64395;SDS011;50717;53.360;6.290;2022-07-29T16:33:39;8.05;;;2.40;;
64395;SDS011;50717;53.360;6.290;2022-07-29T16:36:05;12.73;;;2.75;;
64395;SDS011;50717;53.360;6.290;2022-07-29T16:38:31;7.18;;;2.22;;
64395;SDS011;50717;53.360;6.290;2022-07-29T16:40:56;5.47;;;2.38;;
64395;SDS011;50717;53.360;6.290;2022-07-29T16:43:22;3.55;;;2.15;;
64395;SDS011;50717;53.360;6.290;2022-07-29T16:45:48;6.18;;;2.38;;
64395;SDS011;50717;53.360;6.290;2022-07-29T16:48:14;7.55;;;2.17;;
64395;SDS011;50717;53.360;6.290;2022-07-29T16:50:40;7.65;;;2.30;;
64395;SDS011;50717;53.360;6.290;2022-07-29T16:53:05;5.85;;;2.13;;
64395;SDS011;50717;53.360;6.290;2022-07-29T16:55:31;5.47;;;2.22;;
64395;SDS011;50717;53.360;6.290;2022-07-29T16:57:57;5.47;;;2.00;;
64395;SDS011;50717;53.360;6.290;2022-07-29T17:00:23;8.80;;;1.98;;
64395;SDS011;50717;53.360;6.290;2022-07-29T17:02:48;7.53;;;2.40;;
64395;SDS011;50717;53.360;6.290;2022-07-29T17:05:14;3.88;;;2.10;;
64395;SDS011;50717;53.360;6.290;2022-07-29T17:07:40;4.72;;;1.95;;
64395;SDS011;50717;53.360;6.290;2022-07-29T17:10:07;8.07;;;2.40;;
64395;SDS011;50717;53.360;6.290;2022-07-29T17:12:34;6.80;;;2.22;;
64395;SDS011;50717;53.360;6.290;2022-07-29T17:15:03;5.07;;;1.95;;
64395;SDS011;50717;53.360;6.290;2022-07-29T17:17:30;6.07;;;2.10;;
64395;SDS011;50717;53.360;6.290;2022-07-29T17:19:56;7.82;;;2.30;;
64395;SDS011;50717;53.360;6.290;2022-07-29T17:22:22;6.53;;;2.58;;
64395;SDS011;50717;53.360;6.290;2022-07-29T17:24:47;9.85;;;2.50;;
64395;SDS011;50717;53.360;6.290;2022-07-29T17:27:13;6.80;;;2.80;;
64395;SDS011;50717;53.360;6.290;2022-07-29T17:29:39;7.35;;;2.40;;
64395;SDS011;50717;53.360;6.290;2022-07-29T17:32:05;6.20;;;2.25;;
64395;SDS011;50717;53.360;6.290;2022-07-29T17:34:33;5.75;;;2.30;;
64395;SDS011;50717;53.360;6.290;2022-07-29T17:37:08;6.60;;;2.65;;